Time,TemperatureF,DewpointF,PressureIn,WindDirection,WindDirectionDegrees,WindSpeedMPH,WindSpeedGustMPH,Humidity,HourlyPrecipIn,Conditions,Clouds,dailyrainin,SoftwareType,DateUTC
2013-01-30 00:04:00,59.8,54.0,30.01,South,184,0.0,3.0,81,0.00,,,0.00,weatherlink.com 1.10,2013-01-30 05:04:00,
2013-01-30 00:19:00,60.0,54.0,30.00,ESE,121,0.0,3.0,81,0.00,,,0.00,weatherlink.com 1.10,2013-01-30 05:19:00,
2013-01-30 00:34:00,60.2,55.0,29.98,South,173,0.0,2.0,82,0.00,,,0.00,weatherlink.com 1.10,2013-01-30 05:34:00,
2013-01-30 00:49:00,60.1,55.0,29.98,SSE,163,0.0,2.0,82,0.00,,,0.00,weatherlink.com 1.10,2013-01-30 05:49:00,
2013-01-30 01:04:00,60.0,55.0,29.97,ESE,108,0.0,3.0,83,0.00,,,0.00,weatherlink.com 1.10,2013-01-30 06:04:00,
2013-01-30 01:19:00,59.8,55.0,29.97,East,90,0.0,2.0,84,0.00,,,0.00,weatherlink.com 1.10,2013-01-30 06:19:00,
2013-01-30 01:34:00,59.4,55.0,29.96,SSW,213,0.0,3.0,85,0.00,,,0.00,weatherlink.com 1.10,2013-01-30 06:34:00,
2013-01-30 01:49:00,59.7,56.0,29.95,West,278,3.0,7.0,86,0.00,,,0.00,weatherlink.com 1.10,2013-01-30 06:49:00,
2013-01-30 02:04:00,60.2,56.0,29.95,SSW,200,1.0,5.0,86,0.00,,,0.00,weatherlink.com 1.10,2013-01-30 07:04:00,
2013-01-30 02:19:00,60.4,56.0,29.95,West,260,0.0,6.0,86,0.00,,,0.00,weatherlink.com 1.10,2013-01-30 07:19:00,
2013-01-30 02:34:00,60.0,56.0,29.94,West,259,0.0,3.0,87,0.00,,,0.00,weatherlink.com 1.10,2013-01-30 07:34:00,
2013-01-30 02:49:00,59.9,56.0,29.93,South,173,1.0,2.0,87,0.00,,,0.00,weatherlink.com 1.10,2013-01-30 07:49:00,
2013-01-30 03:04:00,59.9,56.0,29.93,ENE,65,0.0,5.0,88,0.00,,,0.00,weatherlink.com 1.10,2013-01-30 08:04:00,
2013-01-30 03:19:00,60.3,57.0,29.91,SSW,212,3.0,5.0,88,0.00,,,0.00,weatherlink.com 1.10,2013-01-30 08:19:00,
2013-01-30 03:34:00,60.4,57.0,29.91,West,269,1.0,6.0,88,0.00,,,0.00,weatherlink.com 1.10,2013-01-30 08:34:00,
2013-01-30 03:49:00,60.4,57.0,29.91,WSW,242,4.0,5.0,89,0.00,,,0.00,weatherlink.com 1.10,2013-01-30 08:49:00,
2013-01-30 04:04:00,61.1,58.0,29.91,SSW,196,2.0,7.0,89,0.00,,,0.00,weatherlink.com 1.10,2013-01-30 09:04:00,
2013-01-30 04:19:00,61.6,58.0,29.90,South,179,3.0,7.0,88,0.00,,,0.00,weatherlink.com 1.10,2013-01-30 09:19:00,
2013-01-30 04:34:00,61.8,59.0,29.89,SW,215,4.0,8.0,89,0.00,,,0.00,weatherlink.com 1.10,2013-01-30 09:34:00,
2013-01-30 04:50:00,61.8,59.0,29.88,WNW,287,5.0,8.0,89,0.00,,,0.00,weatherlink.com 1.10,2013-01-30 09:50:00,
2013-01-30 05:05:00,61.8,59.0,29.87,SSW,208,4.0,7.0,89,0.00,,,0.00,weatherlink.com 1.10,2013-01-30 10:05:00,
2013-01-30 05:20:00,61.7,59.0,29.87,SSW,205,2.0,7.0,89,0.00,,,0.00,weatherlink.com 1.10,2013-01-30 10:20:00,
2013-01-30 05:35:00,61.6,58.0,29.87,SW,232,1.0,6.0,89,0.00,,,0.00,weatherlink.com 1.10,2013-01-30 10:35:00,
2013-01-30 05:50:00,61.6,58.0,29.87,SSW,198,1.0,7.0,89,0.00,,,0.00,weatherlink.com 1.10,2013-01-30 10:50:00,
2013-01-30 06:05:00,61.6,58.0,29.86,NW,309,3.0,6.0,89,0.00,,,0.00,weatherlink.com 1.10,2013-01-30 11:05:00,
2013-01-30 06:20:00,61.8,59.0,29.85,SSW,208,3.0,9.0,89,0.00,,,0.00,weatherlink.com 1.10,2013-01-30 11:20:00,
2013-01-30 06:35:00,61.9,59.0,29.85,South,178,3.0,6.0,89,0.00,,,0.00,weatherlink.com 1.10,2013-01-30 11:35:00,
2013-01-30 06:50:00,62.1,59.0,29.85,SE,140,5.0,8.0,89,0.00,,,0.00,weatherlink.com 1.10,2013-01-30 11:50:00,
2013-01-30 07:05:00,62.3,59.0,29.84,SW,215,3.0,7.0,89,0.00,,,0.00,weatherlink.com 1.10,2013-01-30 12:05:00,
2013-01-30 07:20:00,62.4,59.0,29.84,SE,144,1.0,7.0,88,0.00,,,0.00,weatherlink.com 1.10,2013-01-30 12:20:00,
2013-01-30 07:35:00,62.6,59.0,29.83,South,190,3.0,8.0,88,0.00,,,0.00,weatherlink.com 1.10,2013-01-30 12:35:00,
2013-01-30 07:50:00,62.8,59.0,29.82,NNW,344,0.0,8.0,88,0.00,,,0.00,weatherlink.com 1.10,2013-01-30 12:50:00,
2013-01-30 08:05:00,62.9,59.0,29.82,SE,140,0.0,5.0,88,0.00,,,0.00,weatherlink.com 1.10,2013-01-30 13:05:00,
2013-01-30 08:20:00,62.9,59.0,29.81,South,190,2.0,4.0,88,0.00,,,0.00,weatherlink.com 1.10,2013-01-30 13:20:00,
2013-01-30 08:35:00,63.3,60.0,29.81,WSW,254,2.0,9.0,88,0.00,,,0.00,weatherlink.com 1.10,2013-01-30 13:35:00,
2013-01-30 08:50:00,64.0,60.0,29.80,SSE,164,2.0,8.0,87,0.00,,,0.00,weatherlink.com 1.10,2013-01-30 13:50:00,
2013-01-30 09:05:00,64.2,60.0,29.79,SSW,194,3.0,7.0,87,0.00,,,0.00,weatherlink.com 1.10,2013-01-30 14:05:00,
2013-01-30 09:20:00,63.9,61.0,29.78,WSW,238,2.0,8.0,89,0.00,,,0.00,weatherlink.com 1.10,2013-01-30 14:20:00,
2013-01-30 09:35:00,64.1,61.0,29.77,SSW,192,2.0,8.0,89,0.00,,,0.00,weatherlink.com 1.10,2013-01-30 14:35:00,
2013-01-30 09:50:00,64.3,61.0,29.78,South,186,5.0,9.0,89,0.00,,,0.00,weatherlink.com 1.10,2013-01-30 14:50:00,
2013-01-30 10:05:00,64.6,61.0,29.78,West,267,8.0,11.0,89,0.00,,,0.00,weatherlink.com 1.10,2013-01-30 15:05:00,
2013-01-30 10:20:00,64.7,62.0,29.77,SSW,206,4.0,11.0,89,0.00,,,0.00,weatherlink.com 1.10,2013-01-30 15:20:00,
2013-01-30 10:35:00,65.1,62.0,29.76,SW,230,3.0,11.0,88,0.00,,,0.00,weatherlink.com 1.10,2013-01-30 15:35:00,
2013-01-30 10:50:00,65.4,62.0,29.76,East,97,6.0,15.0,88,0.00,,,0.00,weatherlink.com 1.10,2013-01-30 15:50:00,
2013-01-30 11:05:00,65.4,62.0,29.75,SSW,200,3.0,14.0,88,0.00,,,0.00,weatherlink.com 1.10,2013-01-30 16:05:00,
2013-01-30 11:20:00,65.7,62.0,29.74,SSW,197,3.0,14.0,87,0.00,,,0.00,weatherlink.com 1.10,2013-01-30 16:20:00,
2013-01-30 11:35:00,65.7,62.0,29.72,WSW,253,2.0,11.0,87,0.00,,,0.00,weatherlink.com 1.10,2013-01-30 16:35:00,
2013-01-30 11:50:00,66.3,62.0,29.71,WSW,252,8.0,18.0,86,0.00,,,0.00,weatherlink.com 1.10,2013-01-30 16:50:00,
2013-01-30 12:05:00,67.0,62.0,29.71,WNW,286,3.0,13.0,84,0.00,,,0.00,weatherlink.com 1.10,2013-01-30 17:05:00,
2013-01-30 12:20:00,66.8,62.0,29.69,WSW,250,4.0,16.0,85,0.00,,,0.00,weatherlink.com 1.10,2013-01-30 17:20:00,
2013-01-30 12:35:00,66.4,62.0,29.68,ESE,114,4.0,15.0,86,0.00,,,0.00,weatherlink.com 1.10,2013-01-30 17:35:00,
2013-01-30 12:50:00,66.1,62.0,29.67,SE,134,3.0,12.0,86,0.00,,,0.00,weatherlink.com 1.10,2013-01-30 17:50:00,
2013-01-30 13:05:00,67.3,62.0,29.65,ESE,116,4.0,14.0,82,0.00,,,0.00,weatherlink.com 1.10,2013-01-30 18:05:00,
2013-01-30 13:20:00,69.0,62.0,29.63,West,275,8.0,15.0,78,0.00,,,0.00,weatherlink.com 1.10,2013-01-30 18:20:00,
2013-01-30 13:36:00,69.2,62.0,29.62,East,84,3.0,14.0,77,0.00,,,0.00,weatherlink.com 1.10,2013-01-30 18:36:00,
2013-01-30 13:51:00,68.4,61.0,29.62,South,187,7.0,11.0,78,0.00,,,0.00,weatherlink.com 1.10,2013-01-30 18:51:00,
2013-01-30 14:06:00,67.9,62.0,29.61,WSW,237,5.0,12.0,80,0.00,,,0.00,weatherlink.com 1.10,2013-01-30 19:06:00,
2013-01-30 14:21:00,67.6,62.0,29.60,South,189,4.0,13.0,81,0.00,,,0.00,weatherlink.com 1.10,2013-01-30 19:21:00,
2013-01-30 14:36:00,66.9,62.0,29.59,SSW,202,3.0,11.0,83,0.00,,,0.00,weatherlink.com 1.10,2013-01-30 19:36:00,
2013-01-30 14:51:00,66.8,62.0,29.59,SSW,192,3.0,9.0,83,0.00,,,0.00,weatherlink.com 1.10,2013-01-30 19:51:00,
2013-01-30 15:06:00,66.9,62.0,29.58,West,260,2.0,7.0,83,0.00,,,0.00,weatherlink.com 1.10,2013-01-30 20:06:00,
2013-01-30 15:21:00,66.4,62.0,29.57,South,173,4.0,12.0,85,0.01,,,0.01,weatherlink.com 1.10,2013-01-30 20:21:00,
2013-01-30 15:36:00,66.5,62.0,29.56,SW,222,5.0,11.0,84,0.01,,,0.01,weatherlink.com 1.10,2013-01-30 20:36:00,
2013-01-30 15:51:00,66.4,62.0,29.55,SW,215,4.0,9.0,84,0.01,,,0.01,weatherlink.com 1.10,2013-01-30 20:51:00,
2013-01-30 16:06:00,67.0,61.0,29.55,WSW,242,1.0,12.0,82,0.01,,,0.01,weatherlink.com 1.10,2013-01-30 21:06:00,
2013-01-30 16:21:00,67.1,61.0,29.54,South,170,3.0,8.0,82,0.00,,,0.01,weatherlink.com 1.10,2013-01-30 21:21:00,
2013-01-30 16:36:00,67.7,61.0,29.52,SSW,196,6.0,8.0,80,0.00,,,0.01,weatherlink.com 1.10,2013-01-30 21:36:00,
2013-01-30 16:51:00,68.0,61.0,29.51,South,171,1.0,11.0,78,0.00,,,0.01,weatherlink.com 1.10,2013-01-30 21:51:00,
2013-01-30 17:06:00,68.1,61.0,29.50,WSW,243,2.0,8.0,77,0.00,,,0.01,weatherlink.com 1.10,2013-01-30 22:06:00,
2013-01-30 17:21:00,68.3,60.0,29.49,SSW,205,3.0,10.0,76,0.00,,,0.01,weatherlink.com 1.10,2013-01-30 22:21:00,
2013-01-30 17:51:00,68.8,60.0,29.48,WSW,254,1.0,12.0,74,0.00,,,0.01,weatherlink.com 1.10,2013-01-30 22:51:00,
2013-01-30 18:06:00,68.9,60.0,29.48,ENE,65,7.0,14.0,73,0.00,,,0.01,weatherlink.com 1.10,2013-01-30 23:06:00,
2013-01-30 18:21:00,68.9,60.0,29.46,SSW,204,2.0,9.0,72,0.00,,,0.01,weatherlink.com 1.10,2013-01-30 23:21:00,
2013-01-30 18:36:00,69.0,59.0,29.44,ESE,106,2.0,13.0,71,0.00,,,0.01,weatherlink.com 1.10,2013-01-30 23:36:00,
2013-01-30 18:51:00,69.0,59.0,29.42,ESE,117,7.0,14.0,70,0.00,,,0.01,weatherlink.com 1.10,2013-01-30 23:51:00,
2013-01-30 19:06:00,68.9,59.0,29.41,SSW,193,1.0,14.0,71,0.00,,,0.01,weatherlink.com 1.10,2013-01-31 00:06:00,
2013-01-30 19:21:00,68.5,59.0,29.40,SSW,203,4.0,11.0,72,0.00,,,0.01,weatherlink.com 1.10,2013-01-31 00:21:00,
2013-01-30 19:36:00,66.8,59.0,29.38,West,264,3.0,16.0,77,0.00,,,0.01,weatherlink.com 1.10,2013-01-31 00:36:00,
2013-01-30 19:51:00,66.6,59.0,29.38,SSE,162,3.0,14.0,77,0.00,,,0.01,weatherlink.com 1.10,2013-01-31 00:51:00,
2013-01-30 20:06:00,65.8,60.0,29.38,East,80,3.0,19.0,80,0.01,,,0.02,weatherlink.com 1.10,2013-01-31 01:06:00,
2013-01-30 20:21:00,64.5,60.0,29.36,South,183,2.0,12.0,85,0.01,,,0.02,weatherlink.com 1.10,2013-01-31 01:21:00,
2013-01-30 20:36:00,63.9,60.0,29.35,SSW,211,4.0,13.0,87,0.01,,,0.02,weatherlink.com 1.10,2013-01-31 01:36:00,
2013-01-30 20:51:00,62.9,60.0,29.37,West,277,12.0,13.0,91,0.02,,,0.03,weatherlink.com 1.10,2013-01-31 01:51:00,
2013-01-30 21:06:00,61.6,60.0,29.37,South,175,19.0,23.0,93,0.28,,,0.30,weatherlink.com 1.10,2013-01-31 02:06:00,
2013-01-30 21:21:00,61.4,60.0,29.35,SW,228,8.0,10.0,94,0.33,,,0.35,weatherlink.com 1.10,2013-01-31 02:21:00,
2013-01-30 21:36:00,61.6,60.0,29.33,West,265,2.0,11.0,94,0.37,,,0.39,weatherlink.com 1.10,2013-01-31 02:36:00,
2013-01-30 21:51:00,61.4,60.0,29.33,West,267,4.0,8.0,95,0.37,,,0.40,weatherlink.com 1.10,2013-01-31 02:51:00,
2013-01-30 22:06:00,61.3,60.0,29.34,SW,234,2.0,9.0,95,0.10,,,0.41,weatherlink.com 1.10,2013-01-31 03:06:00,
2013-01-30 22:21:00,61.3,60.0,29.35,SE,141,3.0,12.0,95,0.06,,,0.41,weatherlink.com 1.10,2013-01-31 03:21:00,
2013-01-30 22:36:00,61.0,60.0,29.35,WSW,250,4.0,14.0,95,0.04,,,0.43,weatherlink.com 1.10,2013-01-31 03:36:00,
2013-01-30 22:51:00,59.6,56.0,29.37,West,262,3.0,10.0,87,0.03,,,0.43,weatherlink.com 1.10,2013-01-31 03:51:00,
2013-01-30 23:07:00,54.1,52.0,29.39,WNW,288,5.0,10.0,92,0.02,,,0.43,weatherlink.com 1.10,2013-01-31 04:07:00,
2013-01-30 23:22:00,53.0,51.0,29.40,West,279,3.0,6.0,93,0.02,,,0.43,weatherlink.com 1.10,2013-01-31 04:22:00,
2013-01-30 23:37:00,52.9,51.0,29.36,West,274,2.0,4.0,94,0.00,,,0.43,weatherlink.com 1.10,2013-01-31 04:37:00,
2013-01-30 23:52:00,53.0,51.0,29.39,WNW,300,2.0,9.0,94,0.02,,,0.45,weatherlink.com 1.10,2013-01-31 04:52:00,